sensor_id;sensor_type;location;lat;lon;timestamp;P1;durP1;ratioP1;P2;durP2;ratioP2
9536;SDS011;4807;48.024;11.726;2022-08-19T00:01:20;4.10;;;3.80;;
9536;SDS011;4807;48.024;11.726;2022-08-19T00:04:36;4.50;;;3.97;;
9536;SDS011;4807;48.024;11.726;2022-08-19T00:07:45;4.20;;;3.57;;
9536;SDS011;4807;48.024;11.726;2022-08-19T00:10:54;3.53;;;3.13;;
9536;SDS011;4807;48.024;11.726;2022-08-19T00:14:03;3.33;;;3.03;;
9536;SDS011;4807;48.024;11.726;2022-08-19T00:17:15;2.83;;;2.63;;
9536;SDS011;4807;48.024;11.726;2022-08-19T00:20:23;3.27;;;3.00;;
9536;SDS011;4807;48.024;11.726;2022-08-19T00:23:32;2.80;;;2.60;;
9536;SDS011;4807;48.024;11.726;2022-08-19T00:26:42;2.47;;;2.37;;
9536;SDS011;4807;48.024;11.726;2022-08-19T00:29:52;2.73;;;2.53;;
9536;SDS011;4807;48.024;11.726;2022-08-19T00:33:06;2.23;;;2.13;;
9536;SDS011;4807;48.024;11.726;2022-08-19T00:36:15;3.40;;;3.10;;
9536;SDS011;4807;48.024;11.726;2022-08-19T00:39:24;2.70;;;2.50;;
9536;SDS011;4807;48.024;11.726;2022-08-19T00:42:36;3.10;;;2.83;;
9536;SDS011;4807;48.024;11.726;2022-08-19T00:49:27;2.37;;;2.27;;
9536;SDS011;4807;48.024;11.726;2022-08-19T00:52:43;2.73;;;2.53;;
9536;SDS011;4807;48.024;11.726;2022-08-19T00:55:58;2.53;;;2.33;;
9536;SDS011;4807;48.024;11.726;2022-08-19T00:59:10;2.47;;;2.27;;
9536;SDS011;4807;48.024;11.726;2022-08-19T01:02:41;6.37;;;2.17;;
9536;SDS011;4807;48.024;11.726;2022-08-19T01:05:52;2.17;;;2.03;;
9536;SDS011;4807;48.024;11.726;2022-08-19T01:09:03;1.90;;;1.80;;
9536;SDS011;4807;48.024;11.726;2022-08-19T01:12:13;2.20;;;2.10;;
9536;SDS011;4807;48.024;11.726;2022-08-19T01:15:23;2.07;;;1.70;;
9536;SDS011;4807;48.024;11.726;2022-08-19T01:18:38;2.37;;;2.17;;
9536;SDS011;4807;48.024;11.726;2022-08-19T01:21:52;2.30;;;2.10;;
9536;SDS011;4807;48.024;11.726;2022-08-19T01:25:22;5.67;;;4.17;;
9536;SDS011;4807;48.024;11.726;2022-08-19T01:28:36;3.30;;;2.50;;
9536;SDS011;4807;48.024;11.726;2022-08-19T01:31:47;2.40;;;2.20;;
9536;SDS011;4807;48.024;11.726;2022-08-19T01:34:59;2.47;;;2.27;;
9536;SDS011;4807;48.024;11.726;2022-08-19T01:38:10;2.63;;;2.43;;
9536;SDS011;4807;48.024;11.726;2022-08-19T01:41:33;2.13;;;1.93;;
9536;SDS011;4807;48.024;11.726;2022-08-19T01:44:42;3.37;;;2.77;;
9536;SDS011;4807;48.024;11.726;2022-08-19T01:47:50;3.20;;;2.27;;
9536;SDS011;4807;48.024;11.726;2022-08-19T01:51:08;3.20;;;2.90;;
9536;SDS011;4807;48.024;11.726;2022-08-19T01:54:18;2.37;;;2.17;;
9536;SDS011;4807;48.024;11.726;2022-08-19T01:57:34;2.33;;;2.17;;
9536;SDS011;4807;48.024;11.726;2022-08-19T02:00:44;2.70;;;2.20;;
9536;SDS011;4807;48.024;11.726;2022-08-19T02:03:52;2.20;;;2.10;;
9536;SDS011;4807;48.024;11.726;2022-08-19T02:07:03;2.67;;;2.47;;
9536;SDS011;4807;48.024;11.726;2022-08-19T02:10:14;2.53;;;2.30;;
9536;SDS011;4807;48.024;11.726;2022-08-19T02:13:28;2.50;;;2.30;;
9536;SDS011;4807;48.024;11.726;2022-08-19T02:16:38;2.40;;;2.20;;
9536;SDS011;4807;48.024;11.726;2022-08-19T02:19:47;2.50;;;2.30;;
9536;SDS011;4807;48.024;11.726;2022-08-19T02:22:55;2.50;;;2.23;;
9536;SDS011;4807;48.024;11.726;2022-08-19T02:26:03;3.30;;;2.13;;
9536;SDS011;4807;48.024;11.726;2022-08-19T02:29:14;2.27;;;2.13;;
9536;SDS011;4807;48.024;11.726;2022-08-19T02:32:23;2.17;;;1.97;;
9536;SDS011;4807;48.024;11.726;2022-08-19T02:35:31;2.20;;;2.00;;
9536;SDS011;4807;48.024;11.726;2022-08-19T02:38:40;2.27;;;2.07;;
9536;SDS011;4807;48.024;11.726;2022-08-19T02:42:00;2.83;;;2.63;;
9536;SDS011;4807;48.024;11.726;2022-08-19T02:45:10;2.13;;;1.93;;
9536;SDS011;4807;48.024;11.726;2022-08-19T02:48:19;2.97;;;2.77;;
9536;SDS011;4807;48.024;11.726;2022-08-19T02:51:32;2.30;;;2.03;;
9536;SDS011;4807;48.024;11.726;2022-08-19T02:54:43;2.50;;;2.30;;
9536;SDS011;4807;48.024;11.726;2022-08-19T02:57:52;2.20;;;2.00;;
9536;SDS011;4807;48.024;11.726;2022-08-19T03:01:02;2.37;;;2.17;;
9536;SDS011;4807;48.024;11.726;2022-08-19T03:04:24;2.97;;;2.67;;
9536;SDS011;4807;48.024;11.726;2022-08-19T03:07:34;3.07;;;2.77;;
9536;SDS011;4807;48.024;11.726;2022-08-19T03:10:43;3.53;;;2.30;;
9536;SDS011;4807;48.024;11.726;2022-08-19T03:13:55;2.60;;;2.40;;
9536;SDS011;4807;48.024;11.726;2022-08-19T03:17:06;2.83;;;2.63;;
9536;SDS011;4807;48.024;11.726;2022-08-19T03:20:15;3.37;;;2.90;;
9536;SDS011;4807;48.024;11.726;2022-08-19T03:23:23;4.27;;;2.67;;
9536;SDS011;4807;48.024;11.726;2022-08-19T03:26:32;2.90;;;2.70;;
9536;SDS011;4807;48.024;11.726;2022-08-19T03:29:41;3.07;;;2.87;;
9536;SDS011;4807;48.024;11.726;2022-08-19T03:32:51;2.80;;;2.60;;
9536;SDS011;4807;48.024;11.726;2022-08-19T03:36:05;2.80;;;2.60;;
9536;SDS011;4807;48.024;11.726;2022-08-19T03:39:16;3.07;;;2.50;;
9536;SDS011;4807;48.024;11.726;2022-08-19T03:42:24;3.90;;;2.90;;
9536;SDS011;4807;48.024;11.726;2022-08-19T03:45:59;2.80;;;2.60;;
9536;SDS011;4807;48.024;11.726;2022-08-19T03:49:11;3.50;;;3.20;;
9536;SDS011;4807;48.024;11.726;2022-08-19T03:52:20;4.23;;;2.80;;
9536;SDS011;4807;48.024;11.726;2022-08-19T03:55:28;2.97;;;2.77;;
9536;SDS011;4807;48.024;11.726;2022-08-19T03:58:37;3.50;;;3.20;;
9536;SDS011;4807;48.024;11.726;2022-08-19T04:01:47;3.60;;;2.93;;
9536;SDS011;4807;48.024;11.726;2022-08-19T04:04:57;3.03;;;2.70;;
9536;SDS011;4807;48.024;11.726;2022-08-19T04:08:05;2.57;;;2.37;;
9536;SDS011;4807;48.024;11.726;2022-08-19T04:11:20;2.77;;;2.57;;
9536;SDS011;4807;48.024;11.726;2022-08-19T04:14:49;2.67;;;2.40;;
9536;SDS011;4807;48.024;11.726;2022-08-19T04:17:57;2.10;;;2.00;;
9536;SDS011;4807;48.024;11.726;2022-08-19T04:21:07;2.57;;;2.37;;
9536;SDS011;4807;48.024;11.726;2022-08-19T04:24:22;2.37;;;2.23;;
9536;SDS011;4807;48.024;11.726;2022-08-19T04:27:31;2.80;;;2.53;;
9536;SDS011;4807;48.024;11.726;2022-08-19T04:30:40;2.50;;;2.30;;
9536;SDS011;4807;48.024;11.726;2022-08-19T04:33:52;2.20;;;2.10;;
9536;SDS011;4807;48.024;11.726;2022-08-19T04:37:04;2.80;;;2.60;;
9536;SDS011;4807;48.024;11.726;2022-08-19T04:40:19;2.07;;;1.97;;
9536;SDS011;4807;48.024;11.726;2022-08-19T04:43:45;2.03;;;1.90;;
9536;SDS011;4807;48.024;11.726;2022-08-19T04:46:55;2.07;;;1.93;;
9536;SDS011;4807;48.024;11.726;2022-08-19T04:50:05;2.10;;;1.93;;
9536;SDS011;4807;48.024;11.726;2022-08-19T04:53:19;2.07;;;1.70;;
9536;SDS011;4807;48.024;11.726;2022-08-19T04:56:27;2.20;;;2.10;;
9536;SDS011;4807;48.024;11.726;2022-08-19T04:59:36;2.50;;;2.10;;
9536;SDS011;4807;48.024;11.726;2022-08-19T05:02:46;2.13;;;1.67;;
9536;SDS011;4807;48.024;11.726;2022-08-19T05:05:55;2.47;;;2.27;;
9536;SDS011;4807;48.024;11.726;2022-08-19T05:09:05;1.97;;;1.87;;
9536;SDS011;4807;48.024;11.726;2022-08-19T05:12:14;2.83;;;2.20;;
9536;SDS011;4807;48.024;11.726;2022-08-19T05:15:22;1.87;;;1.70;;
9536;SDS011;4807;48.024;11.726;2022-08-19T05:18:31;1.50;;;1.40;;
9536;SDS011;4807;48.024;11.726;2022-08-19T05:21:57;3.13;;;1.60;;
9536;SDS011;4807;48.024;11.726;2022-08-19T05:25:26;2.67;;;1.60;;
9536;SDS011;4807;48.024;11.726;2022-08-19T05:28:34;1.87;;;1.77;;
9536;SDS011;4807;48.024;11.726;2022-08-19T05:31:42;2.00;;;1.90;;
9536;SDS011;4807;48.024;11.726;2022-08-19T05:34:52;2.10;;;1.80;;
9536;SDS011;4807;48.024;11.726;2022-08-19T05:38:00;2.10;;;2.00;;
9536;SDS011;4807;48.024;11.726;2022-08-19T05:41:11;2.43;;;2.10;;
9536;SDS011;4807;48.024;11.726;2022-08-19T05:44:21;1.97;;;1.87;;
9536;SDS011;4807;48.024;11.726;2022-08-19T05:47:30;3.10;;;2.10;;
9536;SDS011;4807;48.024;11.726;2022-08-19T05:50:38;2.00;;;1.80;;
9536;SDS011;4807;48.024;11.726;2022-08-19T05:53:49;2.03;;;1.90;;
9536;SDS011;4807;48.024;11.726;2022-08-19T05:56:59;2.07;;;1.97;;
9536;SDS011;4807;48.024;11.726;2022-08-19T06:00:09;2.47;;;2.27;;
9536;SDS011;4807;48.024;11.726;2022-08-19T06:03:23;1.93;;;1.83;;
9536;SDS011;4807;48.024;11.726;2022-08-19T06:06:31;2.83;;;2.10;;
9536;SDS011;4807;48.024;11.726;2022-08-19T06:09:41;2.13;;;2.03;;
9536;SDS011;4807;48.024;11.726;2022-08-19T06:13:09;2.77;;;2.40;;
9536;SDS011;4807;48.024;11.726;2022-08-19T06:16:18;2.50;;;2.30;;
9536;SDS011;4807;48.024;11.726;2022-08-19T06:19:29;2.37;;;2.17;;
9536;SDS011;4807;48.024;11.726;2022-08-19T06:22:39;2.40;;;2.20;;
9536;SDS011;4807;48.024;11.726;2022-08-19T06:25:49;2.50;;;2.30;;
9536;SDS011;4807;48.024;11.726;2022-08-19T06:28:59;2.60;;;2.40;;
9536;SDS011;4807;48.024;11.726;2022-08-19T06:32:07;3.20;;;2.30;;
9536;SDS011;4807;48.024;11.726;2022-08-19T06:35:15;5.07;;;4.00;;
9536;SDS011;4807;48.024;11.726;2022-08-19T06:38:27;7.93;;;5.47;;
9536;SDS011;4807;48.024;11.726;2022-08-19T06:41:36;4.57;;;3.63;;
9536;SDS011;4807;48.024;11.726;2022-08-19T06:44:57;2.93;;;2.70;;
9536;SDS011;4807;48.024;11.726;2022-08-19T06:48:14;2.83;;;2.63;;
9536;SDS011;4807;48.024;11.726;2022-08-19T06:51:26;2.60;;;2.40;;
9536;SDS011;4807;48.024;11.726;2022-08-19T06:54:37;2.50;;;2.30;;
9536;SDS011;4807;48.024;11.726;2022-08-19T06:58:01;2.80;;;2.60;;
9536;SDS011;4807;48.024;11.726;2022-08-19T07:01:12;2.57;;;2.37;;
9536;SDS011;4807;48.024;11.726;2022-08-19T07:04:21;2.63;;;2.43;;
9536;SDS011;4807;48.024;11.726;2022-08-19T07:07:33;2.97;;;2.77;;
9536;SDS011;4807;48.024;11.726;2022-08-19T07:10:42;3.13;;;2.90;;
9536;SDS011;4807;48.024;11.726;2022-08-19T07:13:52;3.40;;;3.10;;
9536;SDS011;4807;48.024;11.726;2022-08-19T07:17:03;3.93;;;3.43;;
9536;SDS011;4807;48.024;11.726;2022-08-19T07:20:23;3.97;;;3.53;;
9536;SDS011;4807;48.024;11.726;2022-08-19T07:23:34;5.43;;;4.33;;
9536;SDS011;4807;48.024;11.726;2022-08-19T07:26:43;5.30;;;4.77;;
9536;SDS011;4807;48.024;11.726;2022-08-19T07:29:57;4.57;;;4.17;;
9536;SDS011;4807;48.024;11.726;2022-08-19T07:33:07;5.90;;;4.47;;
9536;SDS011;4807;48.024;11.726;2022-08-19T07:36:16;6.00;;;5.30;;
9536;SDS011;4807;48.024;11.726;2022-08-19T07:39:32;6.40;;;5.60;;
9536;SDS011;4807;48.024;11.726;2022-08-19T07:42:43;8.37;;;5.83;;
9536;SDS011;4807;48.024;11.726;2022-08-19T07:45:52;6.47;;;5.87;;
9536;SDS011;4807;48.024;11.726;2022-08-19T07:49:04;7.40;;;6.67;;
9536;SDS011;4807;48.024;11.726;2022-08-19T07:52:24;7.33;;;6.30;;
9536;SDS011;4807;48.024;11.726;2022-08-19T07:55:33;7.83;;;6.47;;
9536;SDS011;4807;48.024;11.726;2022-08-19T07:58:49;7.37;;;6.50;;
9536;SDS011;4807;48.024;11.726;2022-08-19T08:02:00;8.07;;;6.70;;
9536;SDS011;4807;48.024;11.726;2022-08-19T08:05:10;8.53;;;7.23;;
9536;SDS011;4807;48.024;11.726;2022-08-19T08:08:41;8.33;;;6.07;;
9536;SDS011;4807;48.024;11.726;2022-08-19T08:12:14;9.27;;;8.00;;
9536;SDS011;4807;48.024;11.726;2022-08-19T08:15:40;9.70;;;7.37;;
9536;SDS011;4807;48.024;11.726;2022-08-19T08:18:52;8.20;;;7.17;;
9536;SDS011;4807;48.024;11.726;2022-08-19T08:22:06;8.57;;;7.77;;
9536;SDS011;4807;48.024;11.726;2022-08-19T08:25:37;9.20;;;8.23;;
9536;SDS011;4807;48.024;11.726;2022-08-19T08:28:50;9.57;;;8.30;;
9536;SDS011;4807;48.024;11.726;2022-08-19T08:32:00;9.80;;;7.47;;
9536;SDS011;4807;48.024;11.726;2022-08-19T08:35:22;8.77;;;7.87;;
9536;SDS011;4807;48.024;11.726;2022-08-19T08:38:35;8.07;;;6.53;;
9536;SDS011;4807;48.024;11.726;2022-08-19T08:41:48;10.63;;;7.60;;
9536;SDS011;4807;48.024;11.726;2022-08-19T08:45:16;8.87;;;7.20;;
9536;SDS011;4807;48.024;11.726;2022-08-19T08:48:29;8.13;;;7.30;;
9536;SDS011;4807;48.024;11.726;2022-08-19T08:51:48;7.57;;;6.77;;
9536;SDS011;4807;48.024;11.726;2022-08-19T08:55:08;8.43;;;7.13;;
9536;SDS011;4807;48.024;11.726;2022-08-19T08:58:27;7.97;;;7.20;;
9536;SDS011;4807;48.024;11.726;2022-08-19T09:01:48;6.63;;;5.93;;
9536;SDS011;4807;48.024;11.726;2022-08-19T09:04:56;6.13;;;5.50;;
9536;SDS011;4807;48.024;11.726;2022-08-19T09:08:08;7.17;;;5.33;;
9536;SDS011;4807;48.024;11.726;2022-08-19T09:11:36;6.70;;;5.43;;
9536;SDS011;4807;48.024;11.726;2022-08-19T09:14:58;5.50;;;4.43;;
9536;SDS011;4807;48.024;11.726;2022-08-19T09:18:15;5.50;;;5.00;;
9536;SDS011;4807;48.024;11.726;2022-08-19T09:21:25;5.97;;;5.47;;
9536;SDS011;4807;48.024;11.726;2022-08-19T09:24:39;6.43;;;5.83;;
9536;SDS011;4807;48.024;11.726;2022-08-19T09:27:50;5.53;;;5.00;;
9536;SDS011;4807;48.024;11.726;2022-08-19T09:31:11;6.17;;;5.67;;
9536;SDS011;4807;48.024;11.726;2022-08-19T09:34:22;6.57;;;5.87;;
9536;SDS011;4807;48.024;11.726;2022-08-19T09:37:32;6.60;;;5.83;;
9536;SDS011;4807;48.024;11.726;2022-08-19T09:40:42;5.73;;;5.23;;
9536;SDS011;4807;48.024;11.726;2022-08-19T09:43:53;5.93;;;5.37;;
9536;SDS011;4807;48.024;11.726;2022-08-19T09:47:04;7.90;;;6.57;;
9536;SDS011;4807;48.024;11.726;2022-08-19T09:50:15;5.90;;;5.30;;
9536;SDS011;4807;48.024;11.726;2022-08-19T09:53:24;9.23;;;5.83;;
9536;SDS011;4807;48.024;11.726;2022-08-19T09:56:34;5.37;;;4.87;;
9536;SDS011;4807;48.024;11.726;2022-08-19T09:59:44;6.10;;;4.60;;
9536;SDS011;4807;48.024;11.726;2022-08-19T10:02:52;5.93;;;5.30;;
9536;SDS011;4807;48.024;11.726;2022-08-19T10:06:03;6.03;;;5.43;;
9536;SDS011;4807;48.024;11.726;2022-08-19T10:09:22;5.83;;;5.23;;
9536;SDS011;4807;48.024;11.726;2022-08-19T10:12:45;5.13;;;4.47;;
9536;SDS011;4807;48.024;11.726;2022-08-19T10:16:01;5.93;;;5.33;;
9536;SDS011;4807;48.024;11.726;2022-08-19T10:19:13;5.43;;;4.90;;
9536;SDS011;4807;48.024;11.726;2022-08-19T10:22:31;6.93;;;5.70;;
9536;SDS011;4807;48.024;11.726;2022-08-19T10:25:42;6.23;;;5.63;;
9536;SDS011;4807;48.024;11.726;2022-08-19T10:28:53;5.80;;;5.30;;
9536;SDS011;4807;48.024;11.726;2022-08-19T10:32:06;6.10;;;5.50;;
9536;SDS011;4807;48.024;11.726;2022-08-19T10:35:16;6.67;;;6.07;;
9536;SDS011;4807;48.024;11.726;2022-08-19T10:38:27;5.73;;;5.13;;
9536;SDS011;4807;48.024;11.726;2022-08-19T10:41:38;7.43;;;5.83;;
9536;SDS011;4807;48.024;11.726;2022-08-19T10:44:50;7.03;;;6.30;;
9536;SDS011;4807;48.024;11.726;2022-08-19T10:48:00;6.00;;;5.47;;
9536;SDS011;4807;48.024;11.726;2022-08-19T10:51:09;6.30;;;5.70;;
9536;SDS011;4807;48.024;11.726;2022-08-19T10:54:36;6.87;;;5.60;;
9536;SDS011;4807;48.024;11.726;2022-08-19T10:58:09;6.10;;;5.50;;
9536;SDS011;4807;48.024;11.726;2022-08-19T11:01:20;5.80;;;5.20;;
9536;SDS011;4807;48.024;11.726;2022-08-19T11:04:30;5.27;;;4.77;;
9536;SDS011;4807;48.024;11.726;2022-08-19T11:07:39;5.70;;;5.10;;
9536;SDS011;4807;48.024;11.726;2022-08-19T11:10:48;5.30;;;4.83;;
9536;SDS011;4807;48.024;11.726;2022-08-19T11:13:59;4.67;;;4.07;;
9536;SDS011;4807;48.024;11.726;2022-08-19T11:17:08;4.03;;;3.73;;
9536;SDS011;4807;48.024;11.726;2022-08-19T11:20:18;4.20;;;3.83;;
9536;SDS011;4807;48.024;11.726;2022-08-19T11:23:27;4.23;;;3.83;;
9536;SDS011;4807;48.024;11.726;2022-08-19T11:26:36;4.87;;;4.47;;
9536;SDS011;4807;48.024;11.726;2022-08-19T11:29:47;4.60;;;4.20;;
9536;SDS011;4807;48.024;11.726;2022-08-19T11:33:03;4.53;;;4.13;;
9536;SDS011;4807;48.024;11.726;2022-08-19T11:36:12;4.00;;;3.70;;
9536;SDS011;4807;48.024;11.726;2022-08-19T11:39:21;3.83;;;3.53;;
9536;SDS011;4807;48.024;11.726;2022-08-19T11:42:30;3.53;;;3.27;;
9536;SDS011;4807;48.024;11.726;2022-08-19T11:46:05;3.30;;;2.93;;
9536;SDS011;4807;48.024;11.726;2022-08-19T11:49:17;3.40;;;3.10;;
9536;SDS011;4807;48.024;11.726;2022-08-19T11:52:28;3.20;;;3.00;;
9536;SDS011;4807;48.024;11.726;2022-08-19T11:55:37;2.40;;;2.20;;
9536;SDS011;4807;48.024;11.726;2022-08-19T11:58:49;2.57;;;2.37;;
9536;SDS011;4807;48.024;11.726;2022-08-19T12:01:59;1.87;;;1.60;;
9536;SDS011;4807;48.024;11.726;2022-08-19T12:05:07;1.80;;;1.70;;
9536;SDS011;4807;48.024;11.726;2022-08-19T12:08:20;1.40;;;1.30;;
9536;SDS011;4807;48.024;11.726;2022-08-19T12:11:28;1.63;;;1.53;;
9536;SDS011;4807;48.024;11.726;2022-08-19T12:14:40;1.50;;;1.40;;
9536;SDS011;4807;48.024;11.726;2022-08-19T12:17:48;1.73;;;1.63;;
9536;SDS011;4807;48.024;11.726;2022-08-19T12:20:56;1.50;;;1.40;;
9536;SDS011;4807;48.024;11.726;2022-08-19T12:24:09;1.57;;;1.47;;
9536;SDS011;4807;48.024;11.726;2022-08-19T12:27:17;1.40;;;1.30;;
9536;SDS011;4807;48.024;11.726;2022-08-19T12:30:46;1.40;;;1.17;;
9536;SDS011;4807;48.024;11.726;2022-08-19T12:33:56;1.50;;;1.40;;
9536;SDS011;4807;48.024;11.726;2022-08-19T12:37:05;4.50;;;4.07;;
9536;SDS011;4807;48.024;11.726;2022-08-19T12:40:16;5.33;;;4.70;;
9536;SDS011;4807;48.024;11.726;2022-08-19T12:43:26;4.93;;;4.53;;
9536;SDS011;4807;48.024;11.726;2022-08-19T12:46:36;5.00;;;4.50;;
9536;SDS011;4807;48.024;11.726;2022-08-19T12:49:47;6.00;;;4.47;;
9536;SDS011;4807;48.024;11.726;2022-08-19T12:53:01;3.13;;;2.83;;
9536;SDS011;4807;48.024;11.726;2022-08-19T12:56:12;2.93;;;2.73;;
9536;SDS011;4807;48.024;11.726;2022-08-19T12:59:25;2.87;;;2.50;;
9536;SDS011;4807;48.024;11.726;2022-08-19T13:02:40;3.60;;;1.53;;
9536;SDS011;4807;48.024;11.726;2022-08-19T13:05:57;1.37;;;1.20;;
9536;SDS011;4807;48.024;11.726;2022-08-19T13:09:09;1.27;;;1.03;;
9536;SDS011;4807;48.024;11.726;2022-08-19T13:12:19;1.43;;;1.33;;
9536;SDS011;4807;48.024;11.726;2022-08-19T13:15:32;1.73;;;1.47;;
9536;SDS011;4807;48.024;11.726;2022-08-19T13:18:43;1.40;;;1.30;;
9536;SDS011;4807;48.024;11.726;2022-08-19T13:21:57;1.00;;;1.00;;
9536;SDS011;4807;48.024;11.726;2022-08-19T13:25:06;1.13;;;1.03;;
9536;SDS011;4807;48.024;11.726;2022-08-19T13:28:17;1.10;;;1.00;;
9536;SDS011;4807;48.024;11.726;2022-08-19T13:31:35;0.70;;;0.70;;
9536;SDS011;4807;48.024;11.726;2022-08-19T13:35:05;0.87;;;0.73;;
9536;SDS011;4807;48.024;11.726;2022-08-19T13:38:16;0.70;;;0.70;;
9536;SDS011;4807;48.024;11.726;2022-08-19T13:41:28;0.50;;;0.40;;
9536;SDS011;4807;48.024;11.726;2022-08-19T13:44:38;0.43;;;0.37;;
9536;SDS011;4807;48.024;11.726;2022-08-19T13:47:47;0.97;;;0.53;;
9536;SDS011;4807;48.024;11.726;2022-08-19T13:51:04;0.97;;;0.53;;
9536;SDS011;4807;48.024;11.726;2022-08-19T13:54:17;0.60;;;0.60;;
9536;SDS011;4807;48.024;11.726;2022-08-19T13:57:28;1.90;;;0.77;;
9536;SDS011;4807;48.024;11.726;2022-08-19T14:00:39;0.60;;;0.60;;
9536;SDS011;4807;48.024;11.726;2022-08-19T14:03:52;0.40;;;0.40;;
9536;SDS011;4807;48.024;11.726;2022-08-19T14:07:01;0.43;;;0.43;;
9536;SDS011;4807;48.024;11.726;2022-08-19T14:10:12;1.23;;;0.43;;
9536;SDS011;4807;48.024;11.726;2022-08-19T14:13:23;0.70;;;0.70;;
9536;SDS011;4807;48.024;11.726;2022-08-19T14:16:33;0.40;;;0.40;;
9536;SDS011;4807;48.024;11.726;2022-08-19T14:19:42;0.50;;;0.50;;
9536;SDS011;4807;48.024;11.726;2022-08-19T14:22:53;0.60;;;0.50;;
9536;SDS011;4807;48.024;11.726;2022-08-19T14:26:03;0.70;;;0.70;;
9536;SDS011;4807;48.024;11.726;2022-08-19T14:29:12;0.70;;;0.70;;
9536;SDS011;4807;48.024;11.726;2022-08-19T14:32:22;0.70;;;0.70;;
9536;SDS011;4807;48.024;11.726;2022-08-19T14:35:31;0.70;;;0.70;;
9536;SDS011;4807;48.024;11.726;2022-08-19T14:38:41;0.80;;;0.80;;
9536;SDS011;4807;48.024;11.726;2022-08-19T14:41:52;0.80;;;0.70;;
9536;SDS011;4807;48.024;11.726;2022-08-19T14:45:00;1.70;;;0.70;;
9536;SDS011;4807;48.024;11.726;2022-08-19T14:48:10;0.63;;;0.63;;
9536;SDS011;4807;48.024;11.726;2022-08-19T14:51:26;1.07;;;0.90;;
9536;SDS011;4807;48.024;11.726;2022-08-19T14:54:37;0.80;;;0.80;;
9536;SDS011;4807;48.024;11.726;2022-08-19T14:57:45;0.83;;;0.83;;
9536;SDS011;4807;48.024;11.726;2022-08-19T15:00:54;0.87;;;0.70;;
9536;SDS011;4807;48.024;11.726;2022-08-19T15:04:04;0.83;;;0.83;;
9536;SDS011;4807;48.024;11.726;2022-08-19T15:07:12;0.67;;;0.67;;
9536;SDS011;4807;48.024;11.726;2022-08-19T15:10:21;0.93;;;0.50;;
9536;SDS011;4807;48.024;11.726;2022-08-19T15:13:30;0.70;;;0.50;;
9536;SDS011;4807;48.024;11.726;2022-08-19T15:16:40;0.63;;;0.63;;
9536;SDS011;4807;48.024;11.726;2022-08-19T15:19:50;0.50;;;0.50;;
9536;SDS011;4807;48.024;11.726;2022-08-19T15:22:59;0.60;;;0.60;;
9536;SDS011;4807;48.024;11.726;2022-08-19T15:26:08;0.60;;;0.60;;
9536;SDS011;4807;48.024;11.726;2022-08-19T15:29:21;0.40;;;0.40;;
9536;SDS011;4807;48.024;11.726;2022-08-19T15:32:31;0.50;;;0.50;;
9536;SDS011;4807;48.024;11.726;2022-08-19T15:35:43;0.40;;;0.40;;
9536;SDS011;4807;48.024;11.726;2022-08-19T15:38:51;0.57;;;0.57;;
9536;SDS011;4807;48.024;11.726;2022-08-19T15:42:00;1.27;;;0.57;;
9536;SDS011;4807;48.024;11.726;2022-08-19T15:45:12;0.73;;;0.73;;
9536;SDS011;4807;48.024;11.726;2022-08-19T15:48:23;1.10;;;0.90;;
9536;SDS011;4807;48.024;11.726;2022-08-19T15:51:34;1.73;;;0.80;;
9536;SDS011;4807;48.024;11.726;2022-08-19T15:54:44;1.80;;;0.60;;
9536;SDS011;4807;48.024;11.726;2022-08-19T15:57:53;0.70;;;0.70;;
9536;SDS011;4807;48.024;11.726;2022-08-19T16:01:34;0.50;;;0.50;;
9536;SDS011;4807;48.024;11.726;2022-08-19T16:05:01;0.97;;;0.73;;
9536;SDS011;4807;48.024;11.726;2022-08-19T16:08:32;0.77;;;0.70;;
9536;SDS011;4807;48.024;11.726;2022-08-19T16:11:54;0.80;;;0.80;;
9536;SDS011;4807;48.024;11.726;2022-08-19T16:15:08;0.53;;;0.53;;
9536;SDS011;4807;48.024;11.726;2022-08-19T16:18:20;0.70;;;0.70;;
9536;SDS011;4807;48.024;11.726;2022-08-19T16:21:32;0.70;;;0.70;;
9536;SDS011;4807;48.024;11.726;2022-08-19T16:24:48;0.73;;;0.73;;
9536;SDS011;4807;48.024;11.726;2022-08-19T16:27:57;0.70;;;0.70;;
9536;SDS011;4807;48.024;11.726;2022-08-19T16:31:14;0.80;;;0.80;;
9536;SDS011;4807;48.024;11.726;2022-08-19T16:34:23;0.60;;;0.60;;
9536;SDS011;4807;48.024;11.726;2022-08-19T16:37:32;1.07;;;0.97;;
9536;SDS011;4807;48.024;11.726;2022-08-19T16:40:42;1.03;;;1.03;;
9536;SDS011;4807;48.024;11.726;2022-08-19T16:43:54;1.27;;;0.80;;
9536;SDS011;4807;48.024;11.726;2022-08-19T16:47:03;1.03;;;1.00;;
9536;SDS011;4807;48.024;11.726;2022-08-19T16:50:12;0.80;;;0.80;;
9536;SDS011;4807;48.024;11.726;2022-08-19T16:53:27;1.80;;;1.03;;
9536;SDS011;4807;48.024;11.726;2022-08-19T16:56:45;0.80;;;0.80;;
9536;SDS011;4807;48.024;11.726;2022-08-19T16:59:54;0.70;;;0.70;;
9536;SDS011;4807;48.024;11.726;2022-08-19T17:03:05;0.63;;;0.63;;
9536;SDS011;4807;48.024;11.726;2022-08-19T17:06:21;0.60;;;0.60;;
9536;SDS011;4807;48.024;11.726;2022-08-19T17:09:32;0.50;;;0.50;;
9536;SDS011;4807;48.024;11.726;2022-08-19T17:12:44;0.60;;;0.60;;
9536;SDS011;4807;48.024;11.726;2022-08-19T17:15:53;0.33;;;0.33;;
9536;SDS011;4807;48.024;11.726;2022-08-19T17:19:03;0.40;;;0.40;;
9536;SDS011;4807;48.024;11.726;2022-08-19T17:22:17;1.20;;;0.40;;
9536;SDS011;4807;48.024;11.726;2022-08-19T17:25:26;0.40;;;0.40;;
9536;SDS011;4807;48.024;11.726;2022-08-19T17:28:38;0.50;;;0.50;;
9536;SDS011;4807;48.024;11.726;2022-08-19T17:31:48;0.90;;;0.40;;
9536;SDS011;4807;48.024;11.726;2022-08-19T17:34:57;0.53;;;0.53;;
9536;SDS011;4807;48.024;11.726;2022-08-19T17:38:06;0.60;;;0.60;;
9536;SDS011;4807;48.024;11.726;2022-08-19T17:41:16;0.40;;;0.40;;
9536;SDS011;4807;48.024;11.726;2022-08-19T17:44:27;0.83;;;0.50;;
9536;SDS011;4807;48.024;11.726;2022-08-19T17:47:38;0.40;;;0.40;;
9536;SDS011;4807;48.024;11.726;2022-08-19T17:50:48;0.60;;;0.60;;
9536;SDS011;4807;48.024;11.726;2022-08-19T17:54:00;0.60;;;0.43;;
9536;SDS011;4807;48.024;11.726;2022-08-19T17:57:12;0.40;;;0.40;;
9536;SDS011;4807;48.024;11.726;2022-08-19T18:00:27;0.53;;;0.53;;
9536;SDS011;4807;48.024;11.726;2022-08-19T18:03:37;0.60;;;0.60;;
9536;SDS011;4807;48.024;11.726;2022-08-19T18:06:47;2.33;;;0.57;;
9536;SDS011;4807;48.024;11.726;2022-08-19T18:09:59;0.80;;;0.80;;
9536;SDS011;4807;48.024;11.726;2022-08-19T18:13:09;0.47;;;0.47;;
9536;SDS011;4807;48.024;11.726;2022-08-19T18:16:24;1.93;;;0.50;;
9536;SDS011;4807;48.024;11.726;2022-08-19T18:19:35;0.50;;;0.50;;
9536;SDS011;4807;48.024;11.726;2022-08-19T18:22:47;0.50;;;0.50;;
9536;SDS011;4807;48.024;11.726;2022-08-19T18:25:58;0.60;;;0.43;;
9536;SDS011;4807;48.024;11.726;2022-08-19T18:29:06;0.57;;;0.57;;
9536;SDS011;4807;48.024;11.726;2022-08-19T18:32:17;0.60;;;0.60;;
9536;SDS011;4807;48.024;11.726;2022-08-19T18:35:30;1.33;;;0.70;;
9536;SDS011;4807;48.024;11.726;2022-08-19T18:38:41;0.70;;;0.70;;
9536;SDS011;4807;48.024;11.726;2022-08-19T18:42:14;0.60;;;0.60;;
9536;SDS011;4807;48.024;11.726;2022-08-19T18:45:43;0.63;;;0.63;;
9536;SDS011;4807;48.024;11.726;2022-08-19T18:49:15;0.97;;;0.70;;
9536;SDS011;4807;48.024;11.726;2022-08-19T18:52:30;1.00;;;0.83;;
9536;SDS011;4807;48.024;11.726;2022-08-19T18:55:39;0.60;;;0.60;;
9536;SDS011;4807;48.024;11.726;2022-08-19T18:58:48;0.70;;;0.70;;
9536;SDS011;4807;48.024;11.726;2022-08-19T19:01:59;0.77;;;0.57;;
9536;SDS011;4807;48.024;11.726;2022-08-19T19:05:10;1.80;;;0.60;;
9536;SDS011;4807;48.024;11.726;2022-08-19T19:08:20;0.90;;;0.77;;
9536;SDS011;4807;48.024;11.726;2022-08-19T19:11:33;1.00;;;0.90;;
9536;SDS011;4807;48.024;11.726;2022-08-19T19:14:46;1.17;;;1.00;;
9536;SDS011;4807;48.024;11.726;2022-08-19T19:17:57;1.47;;;1.20;;
9536;SDS011;4807;48.024;11.726;2022-08-19T19:21:10;2.10;;;1.53;;
9536;SDS011;4807;48.024;11.726;2022-08-19T19:24:22;1.60;;;1.50;;
9536;SDS011;4807;48.024;11.726;2022-08-19T19:27:44;1.37;;;1.27;;
9536;SDS011;4807;48.024;11.726;2022-08-19T19:30:56;2.10;;;1.97;;
9536;SDS011;4807;48.024;11.726;2022-08-19T19:34:10;4.33;;;3.97;;
9536;SDS011;4807;48.024;11.726;2022-08-19T19:37:39;4.20;;;3.90;;
9536;SDS011;4807;48.024;11.726;2022-08-19T19:40:59;5.50;;;5.00;;